CheckWX is a tool to help pilots better visualize weather data.  It is not intended as a substitute for an official pre-flight weather briefing.

05:23:32 UTC

KDSM TAF
Des Moines International Airport
Des Moines, Iowa, USA
KDSM 192340Z 2000/2024 09007KT P6SM SCT050 BKN080 FM200300 09011KT 2SM -SN OVC010 FM200500 10013KT 3/4SM -SN OVC006 FM201300 13010KT 2SM -SN OVC007 FM201700 19008KT P6SM OVC008 FM202000 23010KT P6SM OVC010

Feb-20@
00:00 UTC

Feb-20 @ 00:00 UTC

Feb-20@
03:00 UTC

Feb-20 @ 03:00 UTC

KDSM 192340Z 2000/2024 09007KT P6SM SCT050 BKN080

Expired

Wind
  • 090° at 7 KTS
Visibility
10,000+ meters
Cloud Levels
  • Scattered at 5,000' AGL
  • Broken at 8,000' AGL

Feb-20@
03:00 UTC

Feb-20 @ 03:00 UTC

Feb-20@
05:00 UTC

Feb-20 @ 05:00 UTC

FM200300 09011KT 2SM -SN OVC010

Expired

Wind
  • 090° at 11 KTS
Visibility
3,219 meters
Conditions
Light Snow
Cloud Levels
  • Overcast at 1,000' AGL

Feb-20@
05:00 UTC

Feb-20 @ 05:00 UTC

Feb-20@
13:00 UTC

Feb-20 @ 13:00 UTC

FM200500 10013KT 3/4SM -SN OVC006

From

FromStandard forecast or significant change

Wind
  • 100° at 13 KTS
Visibility
1,207 meters
Conditions
Light Snow
Cloud Levels
  • Overcast at 600' AGL

Feb-20@
13:00 UTC

Feb-20 @ 13:00 UTC

Feb-20@
17:00 UTC

Feb-20 @ 17:00 UTC

FM201300 13010KT 2SM -SN OVC007

From

FromStandard forecast or significant change

Wind
  • 130° at 10 KTS
Visibility
3,219 meters
Conditions
Light Snow
Cloud Levels
  • Overcast at 700' AGL

Feb-20@
17:00 UTC

Feb-20 @ 17:00 UTC

Feb-20@
20:00 UTC

Feb-20 @ 20:00 UTC

FM201700 19008KT P6SM OVC008

From

FromStandard forecast or significant change

Wind
  • 190° at 8 KTS
Visibility
10,000+ meters
Cloud Levels
  • Overcast at 800' AGL

Feb-20@
20:00 UTC

Feb-20 @ 20:00 UTC

Feb-21@
00:00 UTC

Feb-21 @ 00:00 UTC

FM202000 23010KT P6SM OVC010

From

FromStandard forecast or significant change

Wind
  • 230° at 10 KTS
Visibility
10,000+ meters
Cloud Levels
  • Overcast at 1,000' AGL